Terminal Aerodrome Forecast
Issued by NWS

Home | Current Version | Previous Version | Graphics & Text | Print | Product List | Glossary On
Versions: 1 2 3 4 5 6 7 8 9 10 11 12 13 14 15 16
446
FTUS43 KMPX 211128
TAFRWF
TAF
KRWF 211128Z 2112/2212 32021G32KT P6SM SCT035 BKN150
      TEMPO 2112/2116 BKN035
     FM211600 32025G36KT P6SM SCT035
     FM212200 32016G23KT P6SM SKC
     FM220100 31010KT P6SM SKC
     FM220500 30006KT P6SM SKC=

USA.gov is the U.S. government's official web portal to all federal, state and local government web resources and services.